Time;durP1;ratioP1;P1;durP2;ratioP2;P2;SDS_P1;SDS_P2;PMS_P1;PMS_P2;Temp;Humidity;BMP_temperature;BMP_pressure;BME280_temperature;BME280_humidity;BME280_pressure;Samples;Min_cycle;Max_cycle;Signal;HPM_P1;HPM_P2
2022/11/17 07:30:15;;;;;;;3.05;1.10;;;;;;;8.64;100.00;96975.72;5105245;27;20762;-79
2022/11/17 07:32:41;;;;;;;3.35;1.55;;;;;;;8.79;100.00;96980.75;5088024;28;20052;-79
2022/11/17 07:35:08;;;;;;;2.42;1.08;;;;;;;8.90;100.00;96973.75;5088050;28;20056;-79
2022/11/17 07:37:35;;;;;;;0.93;0.82;;;;;;;9.10;100.00;96976.19;5086354;28;20048;-79
2022/11/17 07:40:01;;;;;;;1.08;0.82;;;;;;;9.27;100.00;96976.38;5088396;28;20399;-79
2022/11/17 07:42:28;;;;;;;1.60;1.20;;;;;;;9.29;100.00;96968.00;5087087;28;20059;-80
2022/11/17 07:44:55;;;;;;;1.10;0.80;;;;;;;9.28;100.00;96959.03;5086746;28;20079;-80
2022/11/17 07:47:23;;;;;;;1.15;0.65;;;;;;;9.30;100.00;96956.09;5078518;28;20063;-80
2022/11/17 07:49:49;;;;;;;3.25;0.70;;;;;;;9.50;100.00;96975.63;5086633;28;20719;-80
2022/11/17 07:52:16;;;;;;;1.42;1.10;;;;;;;9.43;100.00;96964.06;5084604;28;20062;-80
2022/11/17 07:54:42;;;;;;;1.33;0.80;;;;;;;9.54;100.00;96986.84;5092214;28;20048;-79
2022/11/17 07:57:09;;;;;;;1.13;0.68;;;;;;;9.59;100.00;96959.00;5087507;28;20062;-80
2022/11/17 07:59:35;;;;;;;2.40;0.95;;;;;;;9.62;100.00;96966.69;5087821;28;20055;-80
2022/11/17 08:02:03;;;;;;;1.35;0.60;;;;;;;9.74;100.00;96981.13;5086962;28;20048;-80
2022/11/17 08:04:30;;;;;;;5.47;0.68;;;;;;;9.72;100.00;96966.94;5087692;28;20163;-80
2022/11/17 08:06:57;;;;;;;3.83;0.60;;;;;;;9.81;100.00;96975.56;5087361;28;20052;-79
2022/11/17 08:09:23;;;;;;;3.88;1.10;;;;;;;9.78;100.00;96971.44;5083488;28;20041;-79
2022/11/17 08:11:50;;;;;;;5.30;0.65;;;;;;;9.67;100.00;96939.69;5089701;28;20059;-79
2022/11/17 08:14:17;;;;;;;1.45;0.63;;;;;;;9.74;100.00;96957.53;5070518;28;20052;-79
2022/11/17 08:16:43;;;;;;;3.65;0.60;;;;;;;9.85;100.00;96969.44;5067193;28;20060;-79
2022/11/17 08:19:10;;;;;;;2.63;0.82;;;;;;;9.92;100.00;96985.59;5067058;28;20059;-80
2022/11/17 08:21:39;;;;;;;3.03;0.90;;;;;;;9.88;100.00;96979.84;5067021;28;20066;-80
2022/11/17 08:24:06;;;;;;;2.57;0.97;;;;;;;9.89;100.00;96981.50;5084987;28;20059;-79
2022/11/17 08:26:33;;;;;;;6.85;3.45;;;;;;;10.03;100.00;96994.84;5085896;28;20052;-80
2022/11/17 08:29:00;;;;;;;1.48;0.90;;;;;;;10.05;100.00;96982.66;5086741;28;20054;-80
2022/11/17 08:31:27;;;;;;;4.47;0.85;;;;;;;10.03;100.00;96973.94;5087090;28;20079;-80
2022/11/17 08:33:54;;;;;;;2.47;0.63;;;;;;;10.12;100.00;96987.16;5086344;28;20108;-80
2022/11/17 08:36:21;;;;;;;4.97;1.08;;;;;;;10.06;100.00;96978.91;5087160;28;20239;-79
2022/11/17 08:38:48;;;;;;;3.05;0.82;;;;;;;9.96;100.00;96965.09;5084496;28;20040;-81
2022/11/17 08:41:15;;;;;;;2.40;0.95;;;;;;;10.04;100.00;96982.91;5074928;28;20052;-81
2022/11/17 08:43:42;;;;;;;2.60;0.93;;;;;;;10.07;100.00;96994.16;5063666;28;20052;-82
2022/11/17 08:46:11;;;;;;;1.95;0.63;;;;;;;10.03;100.00;96990.22;5073371;28;20136;-82
2022/11/17 08:48:38;;;;;;;1.35;0.80;;;;;;;10.15;100.00;96992.97;5070927;28;20048;-81
2022/11/17 08:51:06;;;;;;;4.65;0.88;;;;;;;10.01;100.00;96969.81;5074117;28;20472;-80
2022/11/17 08:53:32;;;;;;;3.00;0.80;;;;;;;10.18;100.00;96994.38;5071012;28;20059;-80
2022/11/17 08:56:00;;;;;;;2.85;1.10;;;;;;;10.08;100.00;96992.25;5073241;28;20056;-81
2022/11/17 08:58:27;;;;;;;1.60;0.70;;;;;;;10.09;100.00;96986.56;5073132;28;20057;-81
2022/11/17 09:00:53;;;;;;;1.67;0.80;;;;;;;10.04;100.00;96988.34;5073058;28;20419;-81
2022/11/17 09:03:20;;;;;;;1.83;0.93;;;;;;;10.07;100.00;96986.00;5079467;28;20069;-82
2022/11/17 09:05:47;;;;;;;1.20;0.73;;;;;;;10.20;100.00;96986.81;5063785;28;20044;-81
2022/11/17 09:08:13;;;;;;;2.33;0.60;;;;;;;10.36;100.00;97005.16;5072378;28;20076;-82
2022/11/17 09:10:40;;;;;;;4.07;1.27;;;;;;;10.39;100.00;97003.88;5073069;28;20041;-82
2022/11/17 09:13:08;;;;;;;4.07;0.82;;;;;;;10.40;100.00;97010.94;5072043;28;20479;-82
2022/11/17 09:15:35;;;;;;;2.33;0.73;;;;;;;10.27;100.00;96996.50;5073002;28;20411;-82
2022/11/17 09:18:02;;;;;;;4.50;0.82;;;;;;;10.30;100.00;96995.22;5073502;28;20050;-81
2022/11/17 09:20:30;;;;;;;5.10;1.02;;;;;;;10.34;100.00;97004.59;5063476;28;20468;-81
2022/11/17 09:22:59;;;;;;;1.88;0.85;;;;;;;10.44;100.00;97023.00;5071633;28;20075;-81
2022/11/17 09:25:26;;;;;;;1.45;0.77;;;;;;;10.53;100.00;97034.31;5072551;28;20044;-81
2022/11/17 09:27:53;;;;;;;3.58;0.93;;;;;;;10.45;100.00;97011.06;5072214;28;20052;-81
2022/11/17 09:30:21;;;;;;;2.70;0.98;;;;;;;10.45;100.00;97014.59;5072037;28;20131;-81
2022/11/17 09:32:48;;;;;;;1.15;0.90;;;;;;;10.44;100.00;97012.13;5073438;28;20086;-80
2022/11/17 09:35:14;;;;;;;2.13;0.88;;;;;;;10.56;100.00;97033.84;5073001;28;20554;-81
2022/11/17 09:37:41;;;;;;;1.55;0.57;;;;;;;10.48;100.00;97032.31;5065534;28;20059;-81
2022/11/17 09:40:13;;;;;;;2.78;0.90;;;;;;;10.45;100.00;97033.63;5071945;28;20131;-81
2022/11/17 09:42:41;;;;;;;2.95;0.85;;;;;;;10.41;100.00;97031.59;5071883;28;20450;-81
2022/11/17 09:45:15;;;;;;;0.63;0.47;;;;;;;10.44;100.00;97028.41;5072181;28;20135;-81
2022/11/17 09:47:49;;;;;;;0.95;0.50;;;;;;;10.50;100.00;97048.38;5079459;28;20499;-81
2022/11/17 09:50:22;;;;;;;5.15;0.60;;;;;;;10.50;100.00;97043.78;5071799;28;20051;-80
2022/11/17 09:52:56;;;;;;;3.67;0.85;;;;;;;10.56;100.00;97048.25;5070640;28;20131;-81
2022/11/17 09:55:27;;;;;;;2.15;0.40;;;;;;;10.56;100.00;97050.97;5068041;28;20063;-81
2022/11/17 09:58:03;;;;;;;1.63;0.52;;;;;;;10.68;100.00;97047.44;5069128;28;20080;-79
2022/11/17 10:00:32;;;;;;;1.08;0.60;;;;;;;10.66;100.00;97053.09;5060597;28;20502;-80
2022/11/17 10:03:01;;;;;;;3.47;0.73;;;;;;;10.54;100.00;97041.44;5065773;28;20484;-80
2022/11/17 10:05:29;;;;;;;5.70;0.85;;;;;;;10.61;100.00;97063.84;5056210;28;20309;-79
2022/11/17 10:08:00;;;;;;;5.68;0.73;;;;;;;10.47;100.00;97036.09;5071757;28;20048;-80
2022/11/17 10:10:36;;;;;;;3.20;0.60;;;;;;;10.62;100.00;97051.94;5071513;28;20060;-81
2022/11/17 10:13:06;;;;;;;3.90;0.80;;;;;;;10.53;100.00;97045.19;5071369;28;20048;-81
2022/11/17 10:15:40;;;;;;;1.30;0.70;;;;;;;10.52;100.00;97033.47;5070511;28;20361;-81
2022/11/17 10:18:13;;;;;;;2.10;0.70;;;;;;;10.70;100.00;97073.28;5062508;28;20059;-81
2022/11/17 10:20:40;;;;;;;0.93;0.45;;;;;;;10.78;100.00;97063.97;5071119;28;20110;-80
2022/11/17 10:23:07;;;;;;;1.75;0.40;;;;;;;10.83;100.00;97072.22;5073294;28;20044;-81
2022/11/17 10:25:38;;;;;;;2.15;0.63;;;;;;;10.82;100.00;97045.28;5078186;28;20055;-80
2022/11/17 10:28:07;;;;;;;1.58;0.65;;;;;;;10.95;100.00;97050.47;5071186;28;20056;-81
2022/11/17 10:30:33;;;;;;;0.82;0.47;;;;;;;11.03;100.00;97044.66;5067326;28;20040;-80
2022/11/17 10:33:02;;;;;;;4.82;0.90;;;;;;;11.17;100.00;97056.13;5070954;28;20048;-80
2022/11/17 10:35:32;;;;;;;3.05;0.80;;;;;;;11.11;100.00;97035.28;5072241;28;20075;-81
2022/11/17 10:38:00;;;;;;;3.05;0.50;;;;;;;11.21;100.00;97051.00;5069892;28;20102;-81
2022/11/17 10:40:29;;;;;;;2.55;0.90;;;;;;;11.23;98.79;97047.00;5071092;28;20405;-81
2022/11/17 10:43:20;;;;;;;2.95;0.85;;;;;;;11.21;97.61;97040.13;5070597;28;20056;-81
2022/11/17 10:45:49;;;;;;;4.32;0.82;;;;;;;11.27;95.55;97029.09;5076333;28;20048;-81
2022/11/17 10:48:24;;;;;;;1.90;0.82;;;;;;;11.24;96.18;97020.59;5061840;28;20127;-81
2022/11/17 10:50:54;;;;;;;9.45;1.35;;;;;;;11.16;94.67;97008.22;5062638;28;20130;-81
2022/11/17 10:53:27;;;;;;;5.82;1.20;;;;;;;11.19;92.86;97032.22;5070497;28;20486;-80
2022/11/17 10:55:57;;;;;;;7.93;0.90;;;;;;;11.26;93.30;97041.06;5071155;28;20084;-82
2022/11/17 10:58:26;;;;;;;3.78;0.82;;;;;;;11.24;92.85;97028.75;5069701;28;20056;-81
2022/11/17 11:00:55;;;;;;;5.30;0.93;;;;;;;11.40;88.64;97033.44;5063283;28;20131;-80
2022/11/17 11:03:23;;;;;;;4.30;0.68;;;;;;;11.45;87.68;97022.66;5066303;28;20052;-80
2022/11/17 11:06:00;;;;;;;3.50;0.90;;;;;;;11.57;88.85;97029.94;5062975;28;20048;-80
2022/11/17 11:08:33;;;;;;;3.63;1.20;;;;;;;11.65;89.08;97034.97;5070389;28;20063;-80
2022/11/17 11:11:00;;;;;;;2.55;0.88;;;;;;;11.87;86.86;97048.72;5070484;28;20418;-80
2022/11/17 11:13:32;;;;;;;2.42;0.75;;;;;;;11.87;84.52;97046.81;5076336;28;20059;-82
2022/11/17 11:15:59;;;;;;;5.35;0.90;;;;;;;11.81;86.70;97033.38;5065380;28;20049;-80
2022/11/17 11:18:29;;;;;;;2.90;0.90;;;;;;;11.87;83.81;97033.22;5050666;28;20388;-81
2022/11/17 11:21:01;;;;;;;;;;;;;;;12.11;84.69;97049.44;5056668;28;20535;-81
2022/11/17 11:23:43;;;;;;;3.88;0.95;;;;;;;12.18;82.42;97031.03;5069393;28;20287;-80
2022/11/17 11:26:22;;;;;;;5.90;0.88;;;;;;;12.29;81.31;97051.09;5070294;28;20468;-82
2022/11/17 11:29:03;;;;;;;4.97;0.88;;;;;;;12.44;80.97;97036.91;5069386;28;20041;-82
2022/11/17 11:31:40;;;;;;;6.90;1.77;;;;;;;12.56;80.79;97045.81;5070257;28;20106;-81
2022/11/17 11:34:20;;;;;;;3.80;0.82;;;;;;;12.70;80.56;97050.91;5069537;28;20075;-82
2022/11/17 11:36:53;;;;;;;3.97;0.80;;;;;;;12.72;79.97;97046.03;5070594;28;20513;-81
2022/11/17 11:39:31;;;;;;;4.78;0.95;;;;;;;12.59;78.58;97043.66;5070956;28;20053;-80
2022/11/17 11:42:17;;;;;;;2.72;0.52;;;;;;;12.62;77.08;97043.97;5069015;28;20053;-82
2022/11/17 11:44:58;;;;;;;4.45;0.90;;;;;;;12.57;78.70;97039.28;5068991;28;20055;-81
2022/11/17 11:47:41;;;;;;;6.00;0.93;;;;;;;12.66;77.04;97068.84;5065949;28;20063;-80
2022/11/17 11:50:15;;;;;;;4.72;1.35;;;;;;;12.48;76.28;97068.03;5075276;28;20048;-82
2022/11/17 11:52:48;;;;;;;3.53;0.90;;;;;;;12.38;78.03;97067.88;5069581;28;20051;-81
2022/11/17 11:55:21;;;;;;;5.60;0.77;;;;;;;12.26;80.08;97056.22;5070181;28;20075;-81
2022/11/17 11:57:54;;;;;;;3.63;1.00;;;;;;;12.28;79.59;97071.25;5077116;28;20381;-80
2022/11/17 12:00:21;;;;;;;4.65;0.80;;;;;;;12.20;79.90;97064.31;5053478;28;20045;-81
2022/11/17 12:02:52;;;;;;;5.43;1.13;;;;;;;12.20;80.20;97079.84;5049797;28;20487;-81
2022/11/17 12:05:26;;;;;;;3.42;1.08;;;;;;;12.25;80.47;97074.47;5066083;28;20040;-82
2022/11/17 12:08:03;;;;;;;6.68;1.25;;;;;;;12.17;78.16;97053.09;5070840;28;20044;-82
2022/11/17 12:10:35;;;;;;;6.55;1.00;;;;;;;12.52;76.96;97066.44;5069609;28;20293;-82
2022/11/17 12:13:04;;;;;;;4.43;0.75;;;;;;;12.59;77.25;97062.75;5064390;28;20049;-82
2022/11/17 12:15:36;;;;;;;4.10;1.67;;;;;;;12.48;76.76;97038.06;5068077;28;20548;-81
2022/11/17 12:18:05;;;;;;;2.20;1.05;;;;;;;12.51;76.86;97043.00;5071483;28;20612;-82
2022/11/17 12:21:04;;;;;;;0.90;0.63;;;;;;;12.47;75.99;97051.94;5066563;28;20131;-81
2022/11/17 12:23:45;;;;;;;0.32;0.30;;;;;;;12.39;74.53;97034.09;5070445;28;20060;-81
2022/11/17 12:26:25;;;;;;;5.65;1.35;;;;;;;12.44;75.67;97053.25;5072323;28;20048;-80
2022/11/17 12:29:26;;;;;;;8.25;1.15;;;;;;;12.59;79.09;97051.84;5071416;28;20072;-82
2022/11/17 12:31:54;;;;;;;1.00;0.40;;;;;;;12.72;73.71;97063.22;5058973;28;20084;-81
2022/11/17 12:34:25;;;;;;;3.60;0.55;;;;;;;12.74;71.36;97068.44;5062469;28;20041;-81
2022/11/17 12:37:25;;;;;;;0.95;0.40;;;;;;;12.71;72.73;97049.84;5070681;28;20046;-82
2022/11/17 12:40:04;;;;;;;1.33;0.50;;;;;;;12.87;73.09;97048.97;5053256;28;20492;-81
2022/11/17 12:42:32;;;;;;;3.00;0.57;;;;;;;13.08;73.65;97046.50;5068159;28;20563;-81
2022/11/17 12:45:04;;;;;;;0.75;0.28;;;;;;;13.09;71.66;97059.91;5066663;28;20057;-81
2022/11/17 12:47:33;;;;;;;4.53;0.63;;;;;;;13.18;70.83;97068.47;5077651;28;20143;-82
2022/11/17 12:50:23;;;;;;;3.22;0.70;;;;;;;13.31;70.38;97058.25;5079526;28;20059;-81
2022/11/17 12:53:31;;;;;;;3.90;0.80;;;;;;;13.22;69.23;97055.97;5065982;28;20055;-83
2022/11/17 12:56:14;;;;;;;4.85;0.50;;;;;;;13.42;69.35;97060.06;5031851;28;20053;-81
2022/11/17 12:58:52;;;;;;;4.85;0.85;;;;;;;13.46;67.22;97039.38;5071023;28;20060;-83
2022/11/17 13:01:27;;;;;;;3.17;0.90;;;;;;;13.56;68.90;97038.66;5072943;28;20115;-81
2022/11/17 13:03:58;;;;;;;3.63;1.00;;;;;;;13.86;67.51;97056.47;5070262;28;20049;-81
2022/11/17 13:06:25;;;;;;;5.38;1.40;;;;;;;13.81;66.21;97035.38;5073095;28;20059;-81
2022/11/17 13:08:55;;;;;;;3.35;0.88;;;;;;;14.01;66.57;97050.31;5072607;28;20118;-81
2022/11/17 13:11:24;;;;;;;3.10;0.93;;;;;;;13.92;66.72;97060.88;5079811;28;20044;-82
2022/11/17 13:14:06;;;;;;;3.72;0.75;;;;;;;13.96;65.94;97048.38;5063429;28;20055;-82
2022/11/17 13:16:36;;;;;;;4.30;0.98;;;;;;;13.90;64.23;97063.88;5072409;28;20506;-81
2022/11/17 13:19:03;;;;;;;5.15;0.82;;;;;;;13.73;63.67;97044.88;5078084;28;20052;-82
2022/11/17 13:21:32;;;;;;;7.60;1.08;;;;;;;13.80;65.97;97066.50;5061418;28;20476;-82
2022/11/17 13:24:00;;;;;;;12.10;1.33;;;;;;;13.67;65.97;97045.06;5071753;28;20144;-82
2022/11/17 13:26:30;;;;;;;3.85;0.77;;;;;;;13.89;65.99;97055.94;5069898;28;20048;-82
2022/11/17 13:29:05;;;;;;;3.38;0.85;;;;;;;13.76;64.58;97049.81;5069953;28;20048;-81
2022/11/17 13:31:32;;;;;;;3.92;0.88;;;;;;;13.88;66.40;97066.06;5068356;28;20033;-82
2022/11/17 13:34:04;;;;;;;2.42;0.82;;;;;;;13.72;66.95;97047.84;5071221;28;20042;-81
2022/11/17 13:36:31;;;;;;;2.55;0.82;;;;;;;13.80;67.51;97055.56;5081064;28;20487;-82
2022/11/17 13:38:59;;;;;;;3.88;0.73;;;;;;;13.81;68.48;97062.69;5072675;28;20056;-82
2022/11/17 13:41:29;;;;;;;3.60;0.85;;;;;;;13.58;68.31;97048.25;5071037;28;20098;-82
2022/11/17 13:43:56;;;;;;;3.63;0.95;;;;;;;13.44;69.89;97055.16;5069568;28;20128;-82
2022/11/17 13:46:23;;;;;;;4.30;1.02;;;;;;;13.24;68.17;97063.91;5070361;28;20352;-82
2022/11/17 13:48:51;;;;;;;6.95;1.30;;;;;;;13.20;70.62;97073.69;5072993;28;20109;-82
2022/11/17 13:51:28;;;;;;;4.82;1.15;;;;;;;12.97;72.30;97063.84;5073526;28;20135;-81
2022/11/17 13:53:58;;;;;;;4.55;1.10;;;;;;;12.93;72.78;97075.25;5059078;28;20049;-81
2022/11/17 13:56:32;;;;;;;2.85;1.13;;;;;;;12.90;74.51;97058.53;5070732;28;20052;-82
2022/11/17 13:59:00;;;;;;;3.08;0.93;;;;;;;12.95;74.51;97083.19;5071431;28;20064;-82
2022/11/17 14:01:30;;;;;;;4.07;1.20;;;;;;;12.89;76.80;97065.09;5071640;28;20049;-82
2022/11/17 14:04:15;;;;;;;6.03;1.05;;;;;;;12.81;75.04;97060.06;5071241;28;20052;-82
2022/11/17 14:06:52;;;;;;;3.28;1.00;;;;;;;12.80;75.99;97044.78;5070985;28;20048;-82
2022/11/17 14:09:20;;;;;;;8.40;1.15;;;;;;;12.75;74.08;97056.41;5068899;28;20050;-82
2022/11/17 14:11:48;;;;;;;4.85;2.33;;;;;;;12.78;73.90;97079.63;5070767;28;20049;-82
2022/11/17 14:14:20;;;;;;;5.65;1.42;;;;;;;12.71;74.34;97074.38;5070778;28;20052;-82
2022/11/17 14:16:46;;;;;;;8.15;1.85;;;;;;;12.63;74.25;97058.44;5071490;28;20045;-82
2022/11/17 14:19:30;;;;;;;6.80;1.15;;;;;;;12.51;74.52;97043.00;5071685;28;20044;-82
2022/11/17 14:21:59;;;;;;;6.53;1.20;;;;;;;12.45;73.86;97043.16;5076242;28;20336;-81
2022/11/17 14:24:26;;;;;;;7.43;1.00;;;;;;;12.41;74.51;97051.03;5061983;28;20072;-81
2022/11/17 14:26:55;;;;;;;5.60;1.10;;;;;;;12.45;74.63;97048.63;5063231;28;20044;-82
2022/11/17 14:29:21;;;;;;;9.02;1.30;;;;;;;12.48;73.90;97072.66;5071515;28;20131;-82
2022/11/17 14:31:48;;;;;;;3.92;0.90;;;;;;;12.29;74.28;97072.91;5070381;28;20048;-82
2022/11/17 14:34:14;;;;;;;10.55;2.20;;;;;;;12.42;75.25;97093.56;5070687;28;20506;-81
2022/11/17 14:36:41;;;;;;;12.52;2.60;;;;;;;12.38;74.96;97085.03;5077534;28;20491;-82
2022/11/17 14:39:14;;;;;;;11.23;2.45;;;;;;;12.40;75.03;97073.88;5064446;28;20053;-81
2022/11/17 14:41:40;;;;;;;5.03;1.25;;;;;;;12.52;75.18;97084.72;5050130;28;20106;-81
2022/11/17 14:44:09;;;;;;;6.78;1.50;;;;;;;12.60;75.54;97070.69;5064539;28;20050;-82
2022/11/17 14:46:36;;;;;;;6.88;1.08;;;;;;;12.70;72.66;97080.91;5068642;28;20567;-82
2022/11/17 14:49:03;;;;;;;4.22;1.10;;;;;;;12.65;75.16;97080.84;5070643;28;20055;-81
2022/11/17 14:51:30;;;;;;;4.13;1.20;;;;;;;12.61;74.78;97066.03;5069325;28;20522;-81
2022/11/17 14:53:56;;;;;;;8.52;1.27;;;;;;;12.33;75.60;97052.25;5075330;28;20055;-81
2022/11/17 14:56:24;;;;;;;7.68;1.63;;;;;;;12.25;77.79;97049.94;5070895;28;20044;-81
2022/11/17 14:58:54;;;;;;;7.15;1.38;;;;;;;12.20;78.92;97079.84;5070548;28;20055;-82
2022/11/17 15:01:24;;;;;;;8.05;1.38;;;;;;;12.00;77.68;97062.06;5074017;28;20040;-80
2022/11/17 15:03:52;;;;;;;9.65;1.90;;;;;;;11.93;79.51;97055.94;5061660;28;20080;-80
2022/11/17 15:06:19;;;;;;;8.55;1.83;;;;;;;11.98;79.47;97069.66;5069053;28;20051;-80
2022/11/17 15:08:45;;;;;;;7.68;1.58;;;;;;;12.01;80.50;97080.06;5071051;28;20051;-80
2022/11/17 15:11:15;;;;;;;14.15;1.48;;;;;;;11.91;79.67;97070.84;5070681;28;20123;-79
2022/11/17 15:13:42;;;;;;;7.72;1.48;;;;;;;11.75;80.00;97042.53;5069784;28;20048;-80
2022/11/17 15:16:09;;;;;;;6.00;1.02;;;;;;;11.82;82.68;97056.81;5074811;28;20064;-80
2022/11/17 15:18:37;;;;;;;8.73;1.73;;;;;;;11.73;80.40;97056.38;5072308;28;20048;-80
2022/11/17 15:21:06;;;;;;;7.20;1.83;;;;;;;11.69;80.69;97064.19;5070712;28;20488;-80
2022/11/17 15:23:37;;;;;;;11.55;1.80;;;;;;;11.75;81.70;97065.13;5068195;28;20144;-79
2022/11/17 15:26:04;;;;;;;5.45;1.55;;;;;;;11.68;81.66;97059.00;5062876;28;20044;-80
2022/11/17 15:28:31;;;;;;;16.20;2.00;;;;;;;11.58;85.46;97047.94;5068176;28;20074;-80
2022/11/17 15:30:58;;;;;;;8.85;1.55;;;;;;;11.66;87.53;97074.75;5055513;28;20147;-80
2022/11/17 15:33:25;;;;;;;7.40;1.10;;;;;;;11.49;89.30;97055.66;5059658;28;20044;-79
2022/11/17 15:36:01;;;;;;;11.27;1.38;;;;;;;11.40;88.50;97048.94;5066993;28;20587;-80
2022/11/17 15:38:28;;;;;;;9.85;1.92;;;;;;;11.48;86.54;97070.31;5068806;28;20132;-80
2022/11/17 15:40:55;;;;;;;6.45;1.42;;;;;;;11.45;90.54;97073.53;5067999;28;20052;-81
2022/11/17 15:43:25;;;;;;;6.47;1.95;;;;;;;11.32;90.86;97048.25;5064064;28;20044;-81
2022/11/17 15:45:52;;;;;;;7.45;1.42;;;;;;;11.24;91.32;97031.47;5069729;28;20487;-78
2022/11/17 15:48:18;;;;;;;8.48;1.60;;;;;;;11.35;92.15;97057.84;5051685;28;20411;-79
2022/11/17 15:50:45;;;;;;;10.40;1.85;;;;;;;11.21;93.23;97038.22;5048609;28;20067;-80
2022/11/17 15:53:13;;;;;;;4.32;1.30;;;;;;;11.20;92.79;97047.47;5050787;28;20079;-79
2022/11/17 15:55:40;;;;;;;9.40;1.85;;;;;;;11.15;92.55;97052.78;5069178;28;20137;-79
2022/11/17 15:58:06;;;;;;;10.55;3.58;;;;;;;11.11;94.10;97048.88;5069267;28;20499;-80
2022/11/17 16:00:33;;;;;;;13.80;2.75;;;;;;;10.96;95.84;97039.38;5073682;28;20389;-81
2022/11/17 16:02:59;;;;;;;12.05;1.75;;;;;;;11.00;97.74;97049.75;5071137;28;20079;-81
2022/11/17 16:05:26;;;;;;;5.95;1.38;;;;;;;10.79;99.50;97036.56;5072001;28;20048;-80
2022/11/17 16:07:53;;;;;;;11.18;2.78;;;;;;;10.89;100.00;97068.56;5071708;28;20053;-80
2022/11/17 16:10:21;;;;;;;9.77;1.63;;;;;;;10.74;100.00;97070.94;5071344;28;20053;-80
2022/11/17 16:12:48;;;;;;;6.47;1.55;;;;;;;10.50;100.00;97046.47;5070562;28;20052;-80
2022/11/17 16:15:15;;;;;;;10.98;1.50;;;;;;;10.54;100.00;97052.28;5063597;28;20060;-80
2022/11/17 16:17:41;;;;;;;6.57;2.00;;;;;;;10.53;100.00;97075.91;5061536;28;20045;-80
2022/11/17 16:20:10;;;;;;;6.85;1.60;;;;;;;10.53;100.00;97078.63;5051519;28;20140;-80
2022/11/17 16:22:36;;;;;;;9.45;1.40;;;;;;;10.51;100.00;97053.59;5050809;28;20045;-81
2022/11/17 16:25:06;;;;;;;9.88;1.80;;;;;;;10.50;100.00;97070.94;5044501;28;20056;-80
2022/11/17 16:27:34;;;;;;;8.23;1.30;;;;;;;10.39;100.00;97059.00;5072992;28;20044;-80
2022/11/17 16:30:00;;;;;;;18.52;3.13;;;;;;;10.55;100.00;97064.78;5068783;28;20568;-80
2022/11/17 16:32:27;;;;;;;9.95;2.13;;;;;;;10.42;100.00;97058.53;5070037;28;20127;-81
2022/11/17 16:34:53;;;;;;;12.40;2.30;;;;;;;10.52;100.00;97065.28;5071014;28;20059;-80
2022/11/17 16:37:20;;;;;;;9.52;1.58;;;;;;;10.43;100.00;97060.19;5071409;28;20051;-80
2022/11/17 16:39:47;;;;;;;13.77;2.33;;;;;;;10.49;100.00;97054.88;5070358;28;20100;-80
2022/11/17 16:42:13;;;;;;;10.82;2.70;;;;;;;10.34;100.00;97053.47;5074181;28;20140;-80
2022/11/17 16:44:41;;;;;;;15.35;2.60;;;;;;;10.30;100.00;97060.38;5092963;28;20056;-80
2022/11/17 16:47:08;;;;;;;7.88;1.92;;;;;;;10.06;100.00;97041.34;5075675;28;20513;-80
2022/11/17 16:49:35;;;;;;;10.13;2.33;;;;;;;10.11;100.00;97056.94;5072400;28;20462;-80
2022/11/17 16:52:02;;;;;;;14.35;3.70;;;;;;;10.13;100.00;97053.97;5070898;28;20052;-80
2022/11/17 16:54:31;;;;;;;9.48;1.92;;;;;;;10.04;100.00;97043.47;5070239;28;20653;-80
2022/11/17 16:56:58;;;;;;;10.98;1.40;;;;;;;10.00;100.00;97044.19;5074463;28;20510;-82
2022/11/17 16:59:24;;;;;;;12.70;2.00;;;;;;;9.91;100.00;97039.06;5074161;28;20530;-80
2022/11/17 17:01:52;;;;;;;5.22;1.27;;;;;;;10.01;100.00;97059.38;5071275;28;20407;-79
2022/11/17 17:04:19;;;;;;;8.15;2.00;;;;;;;9.94;100.00;97047.81;5068989;28;20127;-78
2022/11/17 17:06:45;;;;;;;8.77;2.05;;;;;;;9.88;100.00;97047.69;5070529;28;20490;-79
2022/11/17 17:09:14;;;;;;;10.50;2.05;;;;;;;9.81;100.00;97049.66;5069783;28;20052;-80
2022/11/17 17:11:40;;;;;;;11.77;1.83;;;;;;;9.70;100.00;97042.31;5074131;28;20040;-79
2022/11/17 17:14:09;;;;;;;8.98;2.28;;;;;;;9.60;100.00;97056.44;5077570;28;20419;-79
2022/11/17 17:16:37;;;;;;;11.57;2.50;;;;;;;9.48;100.00;97033.88;5060974;28;20053;-79
2022/11/17 17:19:07;;;;;;;9.95;2.38;;;;;;;9.48;100.00;97036.59;5050142;28;20393;-80
2022/11/17 17:21:35;;;;;;;13.98;1.80;;;;;;;9.69;100.00;97056.94;5069189;28;20135;-81
2022/11/17 17:24:02;;;;;;;12.90;5.32;;;;;;;9.55;100.00;97040.84;5068207;28;20056;-80
2022/11/17 17:26:30;;;;;;;13.80;6.10;;;;;;;9.78;100.00;97055.56;5076326;28;20418;-80
2022/11/17 17:28:58;;;;;;;6.72;2.80;;;;;;;9.72;100.00;97034.78;5066316;28;20051;-80
2022/11/17 17:31:29;;;;;;;17.20;3.50;;;;;;;9.71;100.00;97069.22;5052933;28;20052;-80
2022/11/17 17:33:56;;;;;;;7.43;3.45;;;;;;;9.51;100.00;97046.97;5049509;28;20076;-80
2022/11/17 17:36:25;;;;;;;18.45;6.13;;;;;;;9.63;100.00;97072.25;5069609;28;20129;-80
2022/11/17 17:38:56;;;;;;;14.45;4.57;;;;;;;9.70;100.00;97080.31;5064264;28;20135;-79
2022/11/17 17:41:27;;;;;;;10.80;4.45;;;;;;;9.60;100.00;97050.19;5066592;28;20044;-79
2022/11/17 17:43:56;;;;;;;11.30;4.40;;;;;;;9.73;100.00;97052.72;5053795;28;20505;-79
2022/11/17 17:46:23;;;;;;;12.35;5.18;;;;;;;9.77;100.00;97053.06;5069574;28;20056;-82
2022/11/17 17:48:50;;;;;;;11.75;4.70;;;;;;;9.67;100.00;97065.31;5077114;28;20144;-82
2022/11/17 17:51:19;;;;;;;17.88;5.80;;;;;;;9.42;100.00;97046.47;5072534;28;20131;-79
2022/11/17 17:53:54;;;;;;;13.80;5.25;;;;;;;9.51;100.00;97069.47;5069673;28;20040;-80
2022/11/17 17:56:24;;;;;;;17.13;5.40;;;;;;;9.55;100.00;97059.84;5059806;28;20048;-79
2022/11/17 17:58:53;;;;;;;9.95;3.10;;;;;;;9.44;100.00;97051.66;5062807;28;20408;-79
2022/11/17 18:01:23;;;;;;;12.52;2.92;;;;;;;9.55;100.00;97069.88;5070056;28;20063;-80
2022/11/17 18:03:52;;;;;;;9.98;2.95;;;;;;;9.49;100.00;97054.53;5064355;28;20446;-79
2022/11/17 18:06:20;;;;;;;11.43;2.35;;;;;;;9.43;100.00;97033.75;5073337;28;20060;-79
2022/11/17 18:08:47;;;;;;;11.30;2.67;;;;;;;9.52;100.00;97048.63;5075918;28;20144;-80
2022/11/17 18:11:18;;;;;;;9.45;2.10;;;;;;;9.48;100.00;97042.00;5069089;28;20829;-81
2022/11/17 18:13:46;;;;;;;10.40;2.35;;;;;;;9.50;100.00;97040.72;5068114;28;20048;-80
2022/11/17 18:16:15;;;;;;;7.40;2.60;;;;;;;9.65;100.00;97053.88;5068723;28;20202;-80
2022/11/17 18:18:44;;;;;;;7.88;2.17;;;;;;;9.62;100.00;97029.06;5068499;28;20159;-80
2022/11/17 18:21:13;;;;;;;16.80;2.88;;;;;;;9.68;100.00;97058.84;5063159;28;20084;-81
2022/11/17 18:23:40;;;;;;;13.23;3.13;;;;;;;9.63;100.00;97058.69;5048169;28;20486;-80
2022/11/17 18:26:09;;;;;;;10.27;2.65;;;;;;;9.70;100.00;97081.13;5062452;28;20053;-80
2022/11/17 18:28:38;;;;;;;11.50;5.43;;;;;;;9.72;100.00;97081.72;5070023;28;20055;-81
2022/11/17 18:31:06;;;;;;;19.27;7.03;;;;;;;9.63;100.00;97085.00;5065703;28;20559;-81
2022/11/17 18:33:36;;;;;;;12.07;3.72;;;;;;;9.51;100.00;97080.34;5067464;28;20690;-81
2022/11/17 18:36:04;;;;;;;10.27;3.10;;;;;;;9.49;100.00;97084.34;5072364;28;20062;-81
2022/11/17 18:38:34;;;;;;;9.65;4.00;;;;;;;9.52;100.00;97097.47;5074906;28;20583;-80
2022/11/17 18:41:05;;;;;;;8.85;2.92;;;;;;;9.39;100.00;97091.16;5072170;28;20049;-80
2022/11/17 18:43:32;;;;;;;11.48;2.58;;;;;;;9.43;100.00;97115.91;5075479;28;20054;-80
2022/11/17 18:46:05;;;;;;;57.33;24.60;;;;;;;9.45;100.00;97132.78;5070196;28;20147;-80
2022/11/17 18:48:32;;;;;;;42.38;23.15;;;;;;;9.42;100.00;97130.53;5070459;28;20135;-80
2022/11/17 18:51:00;;;;;;;17.50;5.97;;;;;;;9.33;100.00;97119.19;5070389;28;20067;-79
2022/11/17 18:53:29;;;;;;;28.75;12.00;;;;;;;9.26;100.00;97112.16;5070198;28;20048;-79
2022/11/17 18:55:59;;;;;;;35.33;15.88;;;;;;;9.30;100.00;97125.03;5070809;28;20040;-80
2022/11/17 18:58:25;;;;;;;31.35;13.63;;;;;;;9.35;100.00;97121.66;5066707;28;20052;-79
2022/11/17 19:00:52;;;;;;;15.35;5.82;;;;;;;9.19;100.00;97101.41;5050564;28;20079;-78
2022/11/17 19:03:20;;;;;;;25.35;10.82;;;;;;;9.32;100.00;97127.50;5070146;28;20053;-80
2022/11/17 19:05:46;;;;;;;17.65;7.28;;;;;;;9.20;100.00;97108.50;5070481;28;20558;-79
2022/11/17 19:08:13;;;;;;;17.35;7.72;;;;;;;9.27;100.00;97122.78;5070859;28;20070;-79
2022/11/17 19:10:40;;;;;;;26.92;11.68;;;;;;;9.37;100.00;97135.81;5070939;28;20425;-79